Time;durP1;ratioP1;P1;durP2;ratioP2;P2;SDS_P1;SDS_P2;PMS_P1;PMS_P2;Temp;Humidity;BMP_temperature;BMP_pressure;BME280_temperature;BME280_humidity;BME280_pressure;Samples;Min_cycle;Max_cycle;Signal;HPM_P1;HPM_P2
2021/04/19 00:02:06;;;;;;;19.80;9.05;;;;;;;7.17;88.29;99057.61;1731740;82;21946;-81
2021/04/19 00:04:34;;;;;;;17.95;9.88;;;;;;;7.15;88.62;99064.53;1686130;85;21146;-82
2021/04/19 00:07:03;;;;;;;20.35;10.65;;;;;;;7.16;87.97;99058.47;1689216;84;21684;-82
2021/04/19 00:09:31;;;;;;;19.48;10.70;;;;;;;7.14;88.17;99057.64;1716286;82;21660;-81
2021/04/19 00:11:58;;;;;;;19.45;10.18;;;;;;;7.19;86.31;99057.16;1688777;83;21153;-81
2021/04/19 00:14:26;;;;;;;18.30;10.03;;;;;;;7.17;87.25;99057.61;1725306;82;21170;-81
2021/04/19 00:16:53;;;;;;;17.95;9.50;;;;;;;7.15;87.81;99049.87;1691008;83;21189;-81
2021/04/19 00:19:21;;;;;;;18.55;10.25;;;;;;;7.11;88.39;99053.37;1675922;85;21175;-82
2021/04/19 00:21:48;;;;;;;17.32;9.48;;;;;;;7.15;87.40;99051.61;1735791;82;21140;-82
2021/04/19 00:24:15;;;;;;;19.05;9.70;;;;;;;7.13;88.34;99047.73;1735814;82;21600;-82
2021/04/19 00:26:43;;;;;;;17.65;9.50;;;;;;;7.08;88.60;99043.48;1691914;83;21180;-82
2021/04/19 00:29:11;;;;;;;16.10;8.78;;;;;;;7.15;87.36;99049.02;1727613;82;21140;-81
2021/04/19 00:31:38;;;;;;;17.92;9.38;;;;;;;7.15;87.04;99043.84;1728739;82;21630;-82
2021/04/19 00:34:05;;;;;;;17.10;9.03;;;;;;;7.13;87.00;99044.30;1723529;82;21167;-81
2021/04/19 00:36:33;;;;;;;17.10;9.40;;;;;;;7.12;87.00;99047.75;1678735;85;21193;-81
2021/04/19 00:39:00;;;;;;;16.95;8.95;;;;;;;7.08;88.08;99039.20;1730738;82;21167;-82
2021/04/19 00:41:28;;;;;;;18.85;9.20;;;;;;;7.10;86.74;99041.33;1720658;82;21179;-81
2021/04/19 00:43:56;;;;;;;19.52;9.68;;;;;;;7.05;87.82;99039.67;1714544;82;21179;-81
2021/04/19 00:46:24;;;;;;;16.57;9.28;;;;;;;6.99;88.65;99035.86;1736285;82;21694;-81
2021/04/19 00:48:52;;;;;;;16.67;9.85;;;;;;;6.97;87.65;99041.05;1676258;84;21163;-81
2021/04/19 00:51:20;;;;;;;17.80;10.68;;;;;;;7.00;86.43;99030.66;1715676;82;21179;-81
2021/04/19 00:53:48;;;;;;;19.10;10.03;;;;;;;6.97;87.99;99034.14;1675653;83;21161;-81
2021/04/19 00:56:15;;;;;;;18.25;10.23;;;;;;;6.93;87.64;99029.88;1734146;82;21164;-81
2021/04/19 00:58:45;;;;;;;16.25;9.43;;;;;;;6.94;87.31;99034.60;1686153;83;21168;-82
2021/04/19 01:01:14;;;;;;;18.02;8.58;;;;;;;6.90;87.64;99025.17;1688464;84;21140;-81
2021/04/19 01:03:43;;;;;;;15.10;8.20;;;;;;;6.86;87.79;99027.38;1724676;82;21171;-79
2021/04/19 01:06:11;;;;;;;17.20;8.88;;;;;;;6.84;88.06;99022.66;1687125;84;21124;-81
2021/04/19 01:08:39;;;;;;;15.18;8.18;;;;;;;6.85;87.35;99025.23;1718585;82;21163;-82
2021/04/19 01:11:10;;;;;;;16.57;8.70;;;;;;;6.83;88.05;99020.97;1672471;85;21155;-81
2021/04/19 01:13:37;;;;;;;16.25;8.85;;;;;;;6.77;88.84;99008.52;1672812;85;21187;-81
2021/04/19 01:16:05;;;;;;;16.52;9.45;;;;;;;6.82;87.47;99017.95;1727147;82;21473;-81
2021/04/19 01:18:35;;;;;;;16.40;8.98;;;;;;;6.82;88.09;99022.67;1687969;84;21200;-81
2021/04/19 01:21:04;;;;;;;17.00;8.35;;;;;;;6.80;88.84;99020.55;1736375;82;21170;-81
2021/04/19 01:23:33;;;;;;;16.20;9.15;;;;;;;6.77;89.71;99024.47;1682529;85;21634;-81
2021/04/19 01:26:01;;;;;;;18.75;9.93;;;;;;;6.74;90.21;99025.78;1720441;81;21224;-81
2021/04/19 01:28:31;;;;;;;17.45;9.30;;;;;;;6.77;89.40;99025.76;1722762;82;21187;-82
2021/04/19 01:30:59;;;;;;;14.83;9.13;;;;;;;6.75;90.07;99026.22;1732507;82;21191;-81
2021/04/19 01:33:28;;;;;;;15.63;9.58;;;;;;;6.78;89.65;99027.45;1674114;85;21187;-80
2021/04/19 01:35:55;;;;;;;16.00;9.43;;;;;;;6.74;90.09;99027.95;1673409;85;21269;-82
2021/04/19 01:38:25;;;;;;;18.15;10.00;;;;;;;6.82;88.45;99035.59;1689465;83;21166;-81
2021/04/19 01:40:55;;;;;;;15.35;9.43;;;;;;;6.76;89.52;99029.20;1717535;82;21638;-81
2021/04/19 01:43:23;;;;;;;15.43;9.68;;;;;;;6.73;89.49;99033.13;1674370;84;21608;-81
2021/04/19 01:45:53;;;;;;;13.83;8.40;;;;;;;6.67;89.95;99028.88;1732281;82;21163;-81
2021/04/19 01:48:23;;;;;;;15.60;8.95;;;;;;;6.72;88.98;99023.65;1687965;82;21167;-81
2021/04/19 01:50:54;;;;;;;15.40;8.75;;;;;;;6.71;88.85;99025.38;1731596;82;22110;-83
2021/04/19 01:53:23;;;;;;;17.35;8.75;;;;;;;6.72;87.97;99025.78;1696601;84;21214;-81
2021/04/19 01:55:51;;;;;;;18.25;9.48;;;;;;;6.70;89.29;99022.36;1734580;82;21178;-81
2021/04/19 01:58:22;;;;;;;14.80;8.20;;;;;;;6.75;87.38;99025.77;1733441;82;21203;-80
2021/04/19 02:00:59;;;;;;;16.15;8.03;;;;;;;6.72;88.82;99027.08;1691399;84;21198;-81
2021/04/19 02:04:03;;;;;;;16.52;8.73;;;;;;;6.77;87.86;99034.80;1726156;81;21203;-81
2021/04/19 02:07:07;;;;;;;15.78;8.23;;;;;;;6.72;88.44;99029.66;1678040;84;21195;-82
2021/04/19 02:09:49;;;;;;;14.58;8.43;;;;;;;6.75;88.39;99031.38;1724346;81;21175;-80
2021/04/19 02:12:32;;;;;;;14.25;8.28;;;;;;;6.73;88.94;99034.42;1695682;84;21144;-79
2021/04/19 02:15:13;;;;;;;16.52;8.50;;;;;;;6.73;89.13;99033.98;1727555;82;21631;-82
2021/04/19 02:17:58;;;;;;;15.30;7.92;;;;;;;6.71;89.52;99030.55;1740854;81;21179;-81
2021/04/19 02:20:41;;;;;;;14.93;8.28;;;;;;;6.71;89.49;99030.55;1676549;84;21194;-81
2021/04/19 02:23:32;;;;;;;15.70;8.50;;;;;;;6.73;89.21;99031.84;1727167;82;21156;-82
2021/04/19 02:26:21;;;;;;;14.98;8.68;;;;;;;6.73;89.47;99033.13;1693575;83;21212;-81
2021/04/19 02:28:59;;;;;;;16.85;9.45;;;;;;;6.74;88.10;99029.66;1720046;82;21626;-82
2021/04/19 02:31:32;;;;;;;20.30;9.80;;;;;;;6.71;88.73;99031.84;1732197;82;21639;-81
2021/04/19 02:34:04;;;;;;;15.85;9.53;;;;;;;6.73;88.33;99038.30;1725291;82;21176;-81
2021/04/19 02:36:32;;;;;;;15.43;7.25;;;;;;;6.70;87.86;99026.24;1745452;82;21186;-82
2021/04/19 02:39:01;;;;;;;14.80;7.87;;;;;;;6.66;88.34;99034.90;1731627;81;21187;-81
2021/04/19 02:41:29;;;;;;;14.05;7.87;;;;;;;6.64;87.70;99032.77;1745050;81;21174;-81
2021/04/19 02:43:59;;;;;;;14.28;8.33;;;;;;;6.60;88.53;99024.63;1684388;84;21646;-81
2021/04/19 02:46:33;;;;;;;14.63;8.33;;;;;;;6.57;88.50;99022.94;1735771;82;21183;-82
2021/04/19 02:49:02;;;;;;;18.60;8.58;;;;;;;6.58;89.19;99030.25;1677285;83;21199;-80
2021/04/19 02:51:30;;;;;;;13.93;8.28;;;;;;;6.60;88.79;99018.17;1692407;85;21352;-81
2021/04/19 02:54:00;;;;;;;15.03;8.68;;;;;;;6.60;89.77;99019.91;1715622;82;21152;-81
2021/04/19 02:56:30;;;;;;;14.20;7.58;;;;;;;6.62;89.09;99016.42;1708115;82;21187;-82
2021/04/19 02:59:08;;;;;;;15.30;7.80;;;;;;;6.65;88.15;99019.44;1715316;82;21199;-82
2021/04/19 03:01:41;;;;;;;14.50;8.23;;;;;;;6.66;87.92;99018.55;1673804;85;21179;-81
2021/04/19 03:04:23;;;;;;;15.03;8.28;;;;;;;6.64;88.87;99021.14;1710170;82;21151;-81
2021/04/19 03:06:56;;;;;;;14.58;7.65;;;;;;;6.66;88.69;99019.84;1672541;85;21205;-82
2021/04/19 03:09:27;;;;;;;13.85;7.37;;;;;;;6.65;88.38;99012.53;1670114;85;21199;-80
2021/04/19 03:12:02;;;;;;;18.07;8.43;;;;;;;6.62;89.24;99019.45;1714992;82;21580;-82
2021/04/19 03:14:37;;;;;;;15.28;8.05;;;;;;;6.61;88.78;99016.02;1672233;85;21189;-82
2021/04/19 03:17:10;;;;;;;15.20;7.78;;;;;;;6.62;88.45;99022.88;1735010;82;21588;-82
2021/04/19 03:20:05;;;;;;;16.77;8.05;;;;;;;6.59;89.06;99020.35;1669258;85;21223;-82
2021/04/19 03:22:42;;;;;;;15.93;8.58;;;;;;;6.53;89.94;99029.02;1704438;82;21177;-80
2021/04/19 03:25:12;;;;;;;13.80;7.60;;;;;;;6.47;91.03;99030.37;1668735;85;21651;-80
2021/04/19 03:27:44;;;;;;;14.83;7.65;;;;;;;6.53;90.01;99030.30;1725463;82;21144;-83
2021/04/19 03:30:14;;;;;;;15.28;7.75;;;;;;;6.57;88.47;99028.11;1713030;82;21174;-81
2021/04/19 03:32:50;;;;;;;14.13;7.55;;;;;;;6.55;89.86;99032.44;1666233;85;21302;-81
2021/04/19 03:35:26;;;;;;;13.13;7.78;;;;;;;6.60;88.10;99034.96;1715096;82;21194;-81
2021/04/19 03:37:57;;;;;;;15.35;8.08;;;;;;;6.57;88.98;99038.44;1675455;83;21203;-81
2021/04/19 03:40:33;;;;;;;14.73;6.97;;;;;;;6.56;89.92;99039.73;1708584;82;21254;-81
2021/04/19 03:43:10;;;;;;;13.90;7.17;;;;;;;6.57;89.32;99037.15;1710098;82;21194;-80
2021/04/19 03:45:41;;;;;;;14.35;7.08;;;;;;;6.57;89.74;99038.44;1672542;85;21188;-83
2021/04/19 03:48:29;;;;;;;15.00;8.23;;;;;;;6.56;90.55;99041.03;1723050;80;21238;-81
2021/04/19 03:51:10;;;;;;;13.72;7.80;;;;;;;6.66;88.27;99027.59;1840255;76;22922;-80
2021/04/19 03:53:44;;;;;;;14.90;8.85;;;;;;;6.61;88.54;99036.69;1777115;79;21200;-79
2021/04/19 03:56:15;;;;;;;13.50;7.55;;;;;;;6.59;90.22;99037.59;1737203;80;21160;-79
2021/04/19 03:58:47;;;;;;;16.50;8.40;;;;;;;6.58;89.78;99027.66;1788734;79;21140;-78
2021/04/19 04:01:15;;;;;;;14.15;7.85;;;;;;;6.61;87.98;99032.81;1782913;79;21144;-79
2021/04/19 04:03:48;;;;;;;13.72;7.45;;;;;;;6.56;89.70;99027.70;1791962;79;21589;-79
2021/04/19 04:06:44;;;;;;;15.83;7.95;;;;;;;6.59;89.39;99020.80;1876645;75;22930;-80
2021/04/19 04:09:14;;;;;;;17.25;8.75;;;;;;;6.54;88.30;99028.57;1848519;77;21153;-81
2021/04/19 04:11:44;;;;;;;15.13;8.30;;;;;;;6.56;88.41;99029.00;1860182;76;21168;-80
2021/04/19 04:14:13;;;;;;;13.30;7.72;;;;;;;6.52;89.67;99025.99;1849402;77;21240;-81
2021/04/19 04:16:44;;;;;;;14.43;8.05;;;;;;;6.56;88.87;99023.83;1842165;76;21215;-80
2021/04/19 04:19:13;;;;;;;15.50;8.33;;;;;;;6.55;88.93;99028.56;1849624;77;22522;-80
2021/04/19 04:21:51;;;;;;;15.88;8.28;;;;;;;6.61;90.13;99019.05;1808623;76;22983;-81
2021/04/19 04:24:23;;;;;;;15.53;8.33;;;;;;;6.53;90.89;99016.55;1796450;77;21262;-81
2021/04/19 04:26:52;;;;;;;15.80;7.95;;;;;;;6.59;90.50;99031.13;1752823;79;21136;-80
2021/04/19 04:29:19;;;;;;;14.68;8.30;;;;;;;6.62;90.71;99022.04;1778524;78;21179;-81
2021/04/19 04:31:48;;;;;;;16.50;8.63;;;;;;;6.63;90.89;99025.06;1807335;78;21275;-81
2021/04/19 04:34:17;;;;;;;16.00;8.23;;;;;;;6.66;90.58;99023.27;1784828;78;21159;-82
2021/04/19 04:36:45;;;;;;;18.85;8.50;;;;;;;6.69;90.17;99027.58;1806008;78;21250;-81
2021/04/19 04:39:14;;;;;;;17.60;8.48;;;;;;;6.75;89.86;99024.48;1789222;79;21149;-82
2021/04/19 04:41:48;;;;;;;16.67;8.70;;;;;;;6.76;90.34;99021.04;1818849;78;21282;-81
2021/04/19 04:44:27;;;;;;;17.80;8.03;;;;;;;6.85;89.51;99023.09;1795781;79;21322;-81
2021/04/19 04:47:13;;;;;;;16.32;9.55;;;;;;;6.86;89.47;99026.93;1776920;78;21211;-84
2021/04/19 04:50:09;;;;;;;18.15;9.30;;;;;;;6.83;89.72;99024.84;1802778;78;21186;-81
2021/04/19 04:52:57;;;;;;;16.87;9.45;;;;;;;6.82;89.81;99029.13;1799304;78;21310;-82
2021/04/19 04:55:26;;;;;;;17.37;9.65;;;;;;;6.86;89.59;99029.96;1797156;77;21276;-81
2021/04/19 04:57:54;;;;;;;16.23;9.08;;;;;;;6.82;89.79;99031.72;1743176;82;21178;-80
2021/04/19 05:00:23;;;;;;;17.85;8.43;;;;;;;6.90;89.29;99031.22;1768158;80;21238;-81
2021/04/19 05:02:52;;;;;;;16.55;8.25;;;;;;;6.84;89.53;99029.12;1758344;79;21466;-80
2021/04/19 05:05:20;;;;;;;15.40;8.15;;;;;;;6.89;89.06;99033.81;1744544;81;21506;-81
2021/04/19 05:07:48;;;;;;;16.32;8.88;;;;;;;6.90;89.33;99028.64;1763552;80;21140;-81
2021/04/19 05:10:16;;;;;;;17.30;9.15;;;;;;;6.93;88.89;99025.16;1751133;81;21286;-81
2021/04/19 05:12:46;;;;;;;15.83;8.20;;;;;;;6.95;88.90;99030.72;1733267;81;21164;-81
2021/04/19 05:15:14;;;;;;;18.42;8.85;;;;;;;7.01;89.04;99030.23;1744403;81;22049;-81
2021/04/19 05:17:43;;;;;;;15.18;8.88;;;;;;;7.09;87.97;99021.50;1753486;80;21311;-80
2021/04/19 05:20:15;;;;;;;18.20;8.93;;;;;;;7.09;88.12;99029.27;1750882;79;21203;-80
2021/04/19 05:22:44;;;;;;;18.23;9.45;;;;;;;7.20;87.73;99028.27;1752351;81;21172;-81
2021/04/19 05:25:13;;;;;;;17.40;9.08;;;;;;;7.19;87.80;99018.37;1756913;80;21129;-81
2021/04/19 05:27:41;;;;;;;18.07;8.88;;;;;;;7.17;87.92;99013.21;1744208;81;21271;-81
2021/04/19 05:30:12;;;;;;;15.30;8.50;;;;;;;7.29;87.57;99013.50;1776798;80;21270;-80
2021/04/19 05:32:40;;;;;;;14.05;7.80;;;;;;;7.36;87.22;99016.43;1768826;81;21176;-81
2021/04/19 05:35:09;;;;;;;14.98;8.20;;;;;;;7.40;87.05;99009.49;1744032;79;21318;-82
2021/04/19 05:37:37;;;;;;;14.38;7.95;;;;;;;7.41;86.93;99014.22;1737577;81;21497;-81
2021/04/19 05:40:08;;;;;;;15.50;8.20;;;;;;;7.47;86.64;99015.42;1746066;80;21177;-81
2021/04/19 05:42:35;;;;;;;13.83;8.10;;;;;;;7.44;86.59;99018.04;1758939;81;21287;-80
2021/04/19 05:45:04;;;;;;;12.07;7.83;;;;;;;7.39;86.47;99000.45;1757278;80;21311;-81
2021/04/19 05:47:32;;;;;;;14.87;8.18;;;;;;;7.53;85.79;99018.77;1735329;81;21594;-80
2021/04/19 05:50:00;;;;;;;12.55;7.28;;;;;;;7.58;85.51;99004.50;1753026;81;21334;-79
2021/04/19 05:52:28;;;;;;;13.75;7.10;;;;;;;7.60;86.14;99001.45;1760195;79;21633;-80
2021/04/19 05:54:55;;;;;;;12.93;7.12;;;;;;;7.64;86.15;99003.11;1759456;80;21630;-81
2021/04/19 05:57:46;;;;;;;13.65;7.42;;;;;;;7.72;85.37;99000.41;1758258;80;21158;-82
2021/04/19 06:00:36;;;;;;;12.98;6.40;;;;;;;7.79;85.37;98997.28;1748934;79;22111;-79
2021/04/19 06:03:15;;;;;;;15.50;7.00;;;;;;;7.76;85.78;99005.52;1756852;79;21873;-81
2021/04/19 06:06:00;;;;;;;11.85;6.95;;;;;;;7.82;86.19;98999.81;1763184;80;21157;-81
2021/04/19 06:08:44;;;;;;;17.92;7.95;;;;;;;7.93;85.43;99001.35;1753053;81;21165;-81
2021/04/19 06:11:31;;;;;;;14.07;7.17;;;;;;;7.97;85.34;99008.64;1749237;79;21181;-81
2021/04/19 06:14:12;;;;;;;15.13;7.50;;;;;;;8.11;84.40;99002.78;1802759;77;23066;-81
2021/04/19 06:16:41;;;;;;;13.25;7.70;;;;;;;8.12;83.84;99005.80;1790292;78;21166;-81
2021/04/19 06:19:18;;;;;;;18.50;7.30;;;;;;;8.17;83.82;98998.80;1797895;79;21180;-80
2021/04/19 06:21:47;;;;;;;15.18;7.15;;;;;;;8.14;84.23;99004.05;1798386;79;21137;-80
2021/04/19 06:24:15;;;;;;;15.75;6.30;;;;;;;8.16;83.55;99003.58;1802373;79;21123;-80
2021/04/19 06:26:42;;;;;;;16.55;5.80;;;;;;;8.24;83.26;98997.43;1790058;79;21154;-81
2021/04/19 06:29:11;;;;;;;13.50;6.62;;;;;;;8.27;83.50;98999.50;1807164;79;21173;-81
2021/04/19 06:31:47;;;;;;;10.98;6.17;;;;;;;8.34;82.93;99000.27;1790691;79;21154;-83
2021/04/19 06:34:15;;;;;;;17.52;6.80;;;;;;;8.27;82.35;98995.61;1750136;78;21163;-82
2021/04/19 06:36:46;;;;;;;21.30;6.45;;;;;;;8.48;82.80;98989.24;1698298;84;22296;-84
2021/04/19 06:39:16;;;;;;;17.65;7.50;;;;;;;8.50;82.12;98995.25;1747229;81;21162;-80
2021/04/19 06:41:45;;;;;;;19.30;6.70;;;;;;;8.69;82.24;99000.08;1744024;81;21165;-80
2021/04/19 06:44:14;;;;;;;20.02;7.83;;;;;;;8.75;80.54;99002.55;1746017;81;21171;-83
2021/04/19 06:46:44;;;;;;;13.18;6.87;;;;;;;8.86;81.31;98998.48;1745724;81;21170;-82
2021/04/19 06:49:13;;;;;;;11.83;6.83;;;;;;;8.94;80.30;99010.39;1741097;81;21119;-81
2021/04/19 06:51:42;;;;;;;16.80;6.95;;;;;;;9.05;80.19;98995.05;1699018;84;21308;-81
2021/04/19 06:54:10;;;;;;;11.60;6.70;;;;;;;9.13;79.31;99000.52;1744267;81;21301;-80
2021/04/19 06:56:43;;;;;;;13.10;6.50;;;;;;;9.12;77.85;98996.20;1719891;82;21163;-81
2021/04/19 06:59:16;;;;;;;14.95;6.08;;;;;;;9.20;78.02;98996.05;1699154;84;21194;-80
2021/04/19 07:01:46;;;;;;;10.58;6.30;;;;;;;9.30;78.53;98996.70;1740894;81;21670;-80
2021/04/19 07:04:23;;;;;;;12.28;5.40;;;;;;;9.28;77.63;98994.59;1702573;82;21203;-81
2021/04/19 07:06:52;;;;;;;10.82;5.30;;;;;;;9.39;78.28;98991.33;1734852;81;21171;-81
2021/04/19 07:09:27;;;;;;;11.50;6.08;;;;;;;9.48;78.18;98990.26;1672521;84;21181;-81
2021/04/19 07:12:00;;;;;;;14.38;6.17;;;;;;;9.54;76.36;98990.12;1694603;83;22057;-82
2021/04/19 07:14:30;;;;;;;9.75;5.92;;;;;;;9.63;77.93;98988.63;1741858;81;21158;-80
2021/04/19 07:16:58;;;;;;;14.65;6.17;;;;;;;9.49;76.24;98986.76;1742500;81;21190;-81
2021/04/19 07:19:27;;;;;;;27.37;6.83;;;;;;;9.69;76.94;98987.18;1738088;81;21214;-83
2021/04/19 07:21:55;;;;;;;12.78;5.78;;;;;;;9.79;76.57;98983.92;1741590;81;21769;-79
2021/04/19 07:24:27;;;;;;;13.95;7.05;;;;;;;9.84;76.08;98976.86;1737766;81;21576;-80
2021/04/19 07:26:55;;;;;;;10.38;5.85;;;;;;;9.99;74.00;98975.66;1696819;84;21187;-81
2021/04/19 07:29:26;;;;;;;24.27;7.00;;;;;;;10.11;74.95;98975.34;1743881;81;21603;-81
2021/04/19 07:31:57;;;;;;;41.68;13.25;;;;;;;10.31;74.55;98968.83;1751802;81;21155;-82
2021/04/19 07:34:29;;;;;;;18.30;8.13;;;;;;;10.48;73.27;98973.11;1731817;81;21317;-81
2021/04/19 07:37:10;;;;;;;16.42;6.95;;;;;;;10.60;72.02;98971.92;1731638;81;21174;-81
2021/04/19 07:39:40;;;;;;;17.02;8.38;;;;;;;10.78;72.83;98967.97;1690098;83;21179;-81
2021/04/19 07:42:10;;;;;;;15.35;6.95;;;;;;;10.90;70.85;98971.97;1687847;84;21163;-80
2021/04/19 07:44:47;;;;;;;34.48;13.40;;;;;;;11.06;71.92;98971.09;1729067;81;21171;-82
2021/04/19 07:47:42;;;;;;;14.65;6.00;;;;;;;11.09;72.70;98965.81;1689403;83;21632;-81
2021/04/19 07:50:23;;;;;;;11.20;6.22;;;;;;;11.15;71.65;98965.63;1750226;81;21183;-81
2021/04/19 07:53:05;;;;;;;23.57;10.32;;;;;;;11.27;71.89;98970.45;1734964;81;21771;-80
2021/04/19 07:55:35;;;;;;;19.30;8.38;;;;;;;11.32;71.13;98964.68;1691295;83;21198;-82
2021/04/19 07:58:24;;;;;;;17.93;6.33;;;;;;;11.48;70.48;98961.16;1690902;84;22523;-81
2021/04/19 08:01:03;;;;;;;10.32;5.67;;;;;;;11.47;67.54;98955.53;1693671;83;21483;-82
2021/04/19 08:03:42;;;;;;;14.87;6.10;;;;;;;11.51;68.89;98961.05;1734326;81;21646;-81
2021/04/19 08:06:19;;;;;;;11.48;6.03;;;;;;;11.52;69.90;98953.66;1732173;81;21217;-81
2021/04/19 08:08:49;;;;;;;13.43;5.60;;;;;;;11.52;68.76;98955.41;1727902;81;21160;-82
2021/04/19 08:11:18;;;;;;;14.23;6.65;;;;;;;11.28;68.79;98945.28;1689715;84;21170;-80
2021/04/19 08:13:47;;;;;;;15.88;5.33;;;;;;;11.29;68.87;98949.59;1716355;82;21181;-81
2021/04/19 08:16:21;;;;;;;11.10;5.08;;;;;;;11.38;69.48;98949.75;1742141;81;21157;-81
2021/04/19 08:19:04;;;;;;;12.55;5.92;;;;;;;11.23;68.01;98954.99;1691454;84;21137;-83
2021/04/19 08:21:33;;;;;;;11.05;5.53;;;;;;;11.05;68.47;98954.63;1695025;84;21177;-82
2021/04/19 08:24:14;;;;;;;13.22;5.35;;;;;;;10.91;68.68;98957.63;1729499;81;22261;-81
2021/04/19 08:26:52;;;;;;;11.75;5.17;;;;;;;10.77;68.66;98962.38;1743212;81;21203;-81
2021/04/19 08:32:23;;;;;;;13.15;5.83;;;;;;;10.46;68.99;98952.80;1867720;75;22899;-82
2021/04/19 08:34:59;;;;;;;14.20;5.47;;;;;;;10.41;69.64;98953.39;1837133;77;21150;-79
2021/04/19 08:37:29;;;;;;;10.10;5.30;;;;;;;10.36;69.48;98951.34;1840523;77;21159;-80
2021/04/19 08:39:59;;;;;;;13.88;4.53;;;;;;;10.28;69.34;98950.67;1835353;77;21146;-82
2021/04/19 08:42:28;;;;;;;11.97;5.35;;;;;;;10.20;69.37;98946.12;1848837;77;21474;-80
2021/04/19 08:44:58;;;;;;;12.47;6.40;;;;;;;10.15;69.57;98944.95;1844932;77;21126;-80
2021/04/19 08:47:27;;;;;;;15.75;7.12;;;;;;;10.02;69.82;98949.59;1842366;77;21144;-81
2021/04/19 08:49:59;;;;;;;11.88;6.75;;;;;;;9.90;70.44;98942.95;1850105;77;21595;-80
2021/04/19 08:52:28;;;;;;;13.88;6.87;;;;;;;9.86;70.19;98940.03;1840801;77;21116;-80
2021/04/19 08:54:56;;;;;;;13.10;6.65;;;;;;;9.84;70.51;98948.75;1849296;77;21154;-80
2021/04/19 08:57:24;;;;;;;15.18;6.20;;;;;;;9.81;70.20;98947.52;1785137;78;21110;-80
2021/04/19 08:59:53;;;;;;;12.55;6.28;;;;;;;9.73;70.62;98953.77;1791558;78;21156;-80
2021/04/19 09:02:22;;;;;;;20.40;7.20;;;;;;;9.71;70.16;98948.21;1776493;79;21683;-79
2021/04/19 09:05:16;;;;;;;14.33;6.58;;;;;;;9.67;70.48;98950.02;1776244;79;21134;-83
2021/04/19 09:07:50;;;;;;;14.95;6.58;;;;;;;9.72;70.57;98943.41;1780029;79;21310;-80
2021/04/19 09:10:21;;;;;;;17.98;6.95;;;;;;;9.77;70.85;98946.77;1786663;79;21181;-80
2021/04/19 09:12:48;;;;;;;17.05;7.08;;;;;;;9.84;71.07;98954.79;1783260;79;21173;-80
2021/04/19 09:15:21;;;;;;;12.75;6.65;;;;;;;9.96;71.00;98943.25;1778458;79;21189;-80
2021/04/19 09:18:09;;;;;;;22.65;7.62;;;;;;;10.05;70.36;98946.93;1779966;79;21585;-80
2021/04/19 09:20:54;;;;;;;17.77;6.80;;;;;;;10.13;70.24;98942.84;1778285;79;21145;-80
2021/04/19 09:23:26;;;;;;;12.93;6.33;;;;;;;10.25;69.97;98941.67;1778001;79;21160;-81
2021/04/19 09:25:55;;;;;;;17.48;6.28;;;;;;;10.27;69.22;98940.73;1777695;79;21732;-79
2021/04/19 09:28:47;;;;;;;16.02;7.03;;;;;;;10.32;69.18;98937.58;1786776;79;21515;-81
2021/04/19 09:31:14;;;;;;;17.10;6.33;;;;;;;10.51;69.56;98942.30;1778289;79;21173;-80
2021/04/19 09:33:42;;;;;;;10.50;5.67;;;;;;;10.66;68.12;98938.41;1766204;80;21162;-80
2021/04/19 09:36:10;;;;;;;12.90;6.00;;;;;;;10.77;67.79;98932.47;1764492;80;21155;-79
2021/04/19 09:38:49;;;;;;;10.82;6.03;;;;;;;10.95;66.37;98933.23;1766231;80;21176;-80
2021/04/19 09:41:20;;;;;;;10.82;5.53;;;;;;;11.02;66.24;98933.92;1771122;80;21153;-81
2021/04/19 09:43:58;;;;;;;8.65;5.47;;;;;;;11.33;66.71;98933.84;1773301;79;21179;-82
2021/04/19 09:46:29;;;;;;;11.73;6.00;;;;;;;11.56;65.88;98940.09;1771343;79;21644;-81
2021/04/19 09:49:00;;;;;;;10.72;5.45;;;;;;;11.83;65.07;98928.38;1779102;80;21172;-81
2021/04/19 09:51:39;;;;;;;10.08;5.45;;;;;;;12.14;65.79;98937.37;1768500;80;21163;-80
2021/04/19 09:54:11;;;;;;;11.25;5.60;;;;;;;12.24;62.48;98943.96;1771720;80;21169;-78
2021/04/19 09:56:49;;;;;;;10.93;5.30;;;;;;;12.36;61.42;98940.08;1784777;79;21669;-77
2021/04/19 09:59:20;;;;;;;13.75;5.72;;;;;;;12.39;59.88;98936.51;1777974;79;21160;-78
2021/04/19 10:01:51;;;;;;;10.85;4.87;;;;;;;12.57;60.55;98921.97;1759061;80;21231;-83
2021/04/19 10:04:21;;;;;;;11.55;5.78;;;;;;;12.71;62.17;98921.01;1794437;80;21172;-82
2021/04/19 10:07:02;;;;;;;11.83;5.20;;;;;;;12.90;61.42;98920.73;1776038;79;22307;-79
2021/04/19 10:09:30;;;;;;;8.40;4.72;;;;;;;13.08;62.87;98916.58;1776571;79;21620;-80
2021/04/19 10:12:04;;;;;;;12.03;5.22;;;;;;;13.00;57.49;98915.18;1765199;79;21674;-80
2021/04/19 10:14:38;;;;;;;9.38;5.42;;;;;;;13.05;58.32;98910.62;1772504;79;21156;-79
2021/04/19 10:17:27;;;;;;;9.73;4.80;;;;;;;13.15;59.79;98909.38;1771122;79;21728;-80
2021/04/19 10:19:53;;;;;;;8.95;5.03;;;;;;;13.41;60.91;98908.39;1780579;79;21165;-79
2021/04/19 10:22:20;;;;;;;8.30;5.03;;;;;;;13.62;57.72;98908.44;1770053;79;21160;-79
2021/04/19 10:24:56;;;;;;;8.50;5.22;;;;;;;13.89;58.41;98901.23;1770328;80;21177;-80
2021/04/19 10:27:31;;;;;;;8.53;5.75;;;;;;;14.07;59.83;98900.45;1771212;80;21192;-80
2021/04/19 10:30:15;;;;;;;9.85;5.58;;;;;;;14.20;59.16;98889.47;1768815;80;21170;-80
2021/04/19 10:32:48;;;;;;;10.65;5.55;;;;;;;13.87;56.07;98886.08;1761435;79;21175;-81
2021/04/19 10:35:36;;;;;;;12.07;5.40;;;;;;;14.23;55.87;98885.42;1757789;79;21141;-80
2021/04/19 10:38:06;;;;;;;14.13;7.62;;;;;;;14.47;57.78;98875.66;1764950;79;21186;-78
2021/04/19 10:40:34;;;;;;;11.55;6.10;;;;;;;14.76;55.63;98873.50;1755844;79;21189;-81
2021/04/19 10:43:11;;;;;;;17.90;6.92;;;;;;;14.97;55.35;98866.45;1767575;79;21172;-80
2021/04/19 10:45:41;;;;;;;14.95;6.42;;;;;;;15.14;57.03;98870.44;1760942;79;21165;-81
2021/04/19 10:48:22;;;;;;;10.65;5.65;;;;;;;15.01;56.09;98857.53;1760411;79;21165;-81
2021/04/19 10:50:52;;;;;;;13.08;6.60;;;;;;;14.94;54.66;98859.59;1759247;79;21378;-83
2021/04/19 10:53:37;;;;;;;11.70;6.70;;;;;;;14.85;54.53;98858.70;1787966;79;21671;-82
2021/04/19 10:56:08;;;;;;;12.75;6.62;;;;;;;14.60;54.88;98818.41;1774767;79;21322;-84
2021/04/19 10:58:38;;;;;;;13.13;6.33;;;;;;;14.95;56.12;98860.44;1775766;79;21311;-81
2021/04/19 11:01:07;;;;;;;12.93;6.50;;;;;;;14.85;55.35;98853.00;1768306;79;21172;-81
2021/04/19 11:03:37;;;;;;;10.08;6.30;;;;;;;14.60;53.05;98852.42;1762563;79;21188;-81
2021/04/19 11:06:10;;;;;;;12.98;6.28;;;;;;;14.53;53.77;98840.06;1768568;81;21644;-82
2021/04/19 11:08:57;;;;;;;12.40;6.05;;;;;;;14.50;53.81;98841.49;1760482;79;21158;-81
2021/04/19 11:11:36;;;;;;;11.30;6.12;;;;;;;14.40;54.25;98836.29;1759778;79;21188;-82
2021/04/19 11:14:25;;;;;;;13.43;6.40;;;;;;;14.40;54.52;98840.21;1734977;79;21145;-84
2021/04/19 11:17:00;;;;;;;16.48;7.80;;;;;;;14.43;55.56;98840.93;1771038;79;21293;-82
2021/04/19 11:19:42;;;;;;;15.03;7.70;;;;;;;14.65;54.21;98842.61;1780820;78;21167;-82
2021/04/19 11:22:33;;;;;;;12.85;7.10;;;;;;;14.89;55.01;98837.54;1759168;80;21193;-88
2021/04/19 11:25:29;;;;;;;10.28;6.55;;;;;;;15.11;55.24;98843.08;1745705;80;21652;-91
2021/04/19 11:28:29;;;;;;;11.43;6.37;;;;;;;15.29;55.14;98833.02;1761722;80;21585;-86
2021/04/19 11:30:56;;;;;;;11.63;7.17;;;;;;;15.33;54.20;98833.72;1757710;80;21272;-82
2021/04/19 11:33:26;;;;;;;11.15;5.78;;;;;;;15.49;53.66;98840.38;1785992;80;21280;-82
2021/04/19 11:36:03;;;;;;;10.65;6.97;;;;;;;15.04;51.40;98840.35;1736509;81;21295;-84
2021/04/19 11:38:31;;;;;;;12.78;6.95;;;;;;;15.11;53.75;98832.13;1758974;81;21133;-83
2021/04/19 11:41:06;;;;;;;10.72;6.40;;;;;;;15.03;53.25;98833.44;1751608;81;21299;-81
2021/04/19 11:43:37;;;;;;;11.50;6.53;;;;;;;15.11;54.10;98836.53;1756975;81;21165;-81
2021/04/19 11:46:16;;;;;;;9.83;6.03;;;;;;;15.21;53.23;98839.09;1761771;81;21652;-83
2021/04/19 11:48:47;;;;;;;12.93;6.25;;;;;;;15.27;51.72;98834.86;1754471;81;21159;-84
2021/04/19 11:51:17;;;;;;;11.22;7.08;;;;;;;15.21;52.22;98837.78;1742507;81;21249;-85
2021/04/19 11:53:48;;;;;;;19.12;9.73;;;;;;;15.27;53.29;98828.31;1784660;80;21185;-84
2021/04/19 11:56:20;;;;;;;11.45;6.60;;;;;;;15.18;52.73;98836.64;1758143;80;21181;-80
2021/04/19 11:58:50;;;;;;;11.88;6.62;;;;;;;15.05;52.03;98831.59;1765183;80;21102;-83
2021/04/19 12:01:21;;;;;;;12.28;6.53;;;;;;;15.09;52.38;98827.91;1753541;81;21308;-86
2021/04/19 12:03:51;;;;;;;10.10;5.70;;;;;;;14.99;52.94;98828.80;1752206;81;21312;-83